LQMOLDZD

Guest
Details From LQMO - MOSTAR
To LDZD - ZADAR
Flight Number -
Tags generated
Created
Modified
Stats Distance 119 nm / 220 km
Max Altitude 7,000 ft / 2,134 m
Waypoints 3
Social Downloads 1
Likes 0
Share VATSIM

Download

Looking for another format? Having issues loading an existing format? Contact us
Advertisement - Login to hide

Notes

Basic altitude profile: - Ascent Rate: 2500ft/min - Ascent Speed: 250kts - Cruise Altitude: 16000ft - Cruise Speed: 420kts - Descent Rate: 1500ft/min - Descent Speed: 250kts Options: - Use NATs: yes - Use PACOTS: yes - Use low airways: yes - Use high airways: yes

Route

LQMO OKLAX LDZD

ID Type Via Altitude Latitude Longitude Leg Dist Tot Dist Heading (true) Name
O LQMO APT - 0 ft / 0 m 43.28292˚ 17.84587˚ - 0 nm - MOSTAR
OKLAX FIX - 7,000 ft / 2,134 m 43.86750˚ 16.04278˚ 85 nm 85 nm 295° / 293° -
O LDZD APT - 0 ft / 0 m 44.09723˚ 15.34798˚ 33 nm 118 nm 295° / 294° ZADAR

Altitude Profile

Advertisement - Login to hide

LQMO

Details ICAO LQMO (OMO)
Name MOSTAR
Region Bosnia and Herzegovinia
Timezone Europe/Sarajevo (UTC+2.0)
Stats Elevation 156 ft / 48 m (AMSL)
Location 43.282916° 17.845865°
Runways 1
Magnetic Variation 4.138° E

METAR

LQMO 260700Z 14003KT 110V170 CAVOK 23/15 Q1017

Decode

TAF

Not found

Departure Runways

ID Width Length Bearing (true) Bearing (mag) Surface Threshold Offset Overrun Length
16 158 ft / 48 m 7,843 ft / 2,391 m 157.82° 153.68° Asphalt 0 ft / 0 m 0 ft / 0 m
34 158 ft / 48 m 7,843 ft / 2,391 m 337.83° 333.69° Asphalt 0 ft / 0 m 0 ft / 0 m

LDZD

Details ICAO LDZD (ZAD)
Name ZADAR
Region Croatia
Timezone Europe/Zagreb (UTC+2.0)
Stats Elevation 289 ft / 88 m (AMSL)
Location 44.097225° 15.347978°
Runways 2
Magnetic Variation 3.750° E

METAR

LDZD 260700Z 08007KT 030V140 CAVOK 25/15 Q1018 NOSIG

Decode

TAF

TAF LDZD 260525Z 2606/2706 08007KT 9999 FEW050 TX29/2612Z TN16/2704Z TEMPO 2606/2608 06008KT BECMG 2610/2612 30010KT PROB30 TEMPO 2612/2615 FEW035CB FEW040TCU BECMG 2615/2617 10005KT

Decode

Destination Runways

ID Width Length Bearing (true) Bearing (mag) Surface Threshold Offset Overrun Length
04 147 ft / 45 m 6,519 ft / 1,987 m 41.52° 37.77° Asphalt 0 ft / 0 m 0 ft / 0 m
14 147 ft / 45 m 8,159 ft / 2,487 m 135.79° 132.04° Asphalt 0 ft / 0 m 0 ft / 0 m
22 147 ft / 45 m 6,519 ft / 1,987 m 221.53° 217.78° Asphalt 0 ft / 0 m 0 ft / 0 m
32 147 ft / 45 m 8,159 ft / 2,487 m 315.81° 312.06° Asphalt 0 ft / 0 m 0 ft / 0 m

Approach Navaids

Runway Type Ident Frequency Range Bearing (true) Bearing (mag) Slope Elevation
14 Localiser IZD 110.10 MHz 25 nm / 46 km 135.69° 131.94° - 246 ft / 75 m (AMSL)
14 Glidescope IZD 110.10 MHz 25 nm / 46 km 135.69° 131.94° 3.00° 236 ft / 72 m (AMSL)